Sky Valley, California
Current Conditions -  °F | °C
As of 6:53 PM on Thursday 27 Nov 2014 (Local Time) from KPSP Reporting Station
Clear Clear  
Wind Chill: 67°   Ceiling: Unl
Heat Index: 67°   Visibility: 10mi
Dew Point: 27°   Wind: 5mph
Humidity: 22%   Direction: 350°N
Pressure: 30.08"   Gusts: NA
Location:  33.8584°N, 116.312°W
Report Text: KPSP 280253Z 35004KT 10SM CLR 19/M03 A3008 RMK AO2 SLP187 T01941028 51003
Loading
Personal Weather Stations






























Interactive Weather Map New forecast layout! Learn more

10-Day Weather Forecast

Advertisements
Track Severe Weather on mobile